sensor_id;sensor_type;location;lat;lon;timestamp;pressure;altitude;pressure_sealevel;temperature;humidity
4346;BME280;2186;49.866;7.986;2022-11-02T00:01:29;100722.00;;;7.57;100.00
4346;BME280;2186;49.866;7.986;2022-11-02T00:03:56;100710.56;;;7.53;100.00
4346;BME280;2186;49.866;7.986;2022-11-02T00:06:23;100715.91;;;7.49;100.00
4346;BME280;2186;49.866;7.986;2022-11-02T00:08:49;100712.41;;;7.47;100.00
4346;BME280;2186;49.866;7.986;2022-11-02T00:11:15;100720.06;;;7.76;100.00
4346;BME280;2186;49.866;7.986;2022-11-02T00:13:42;100717.38;;;7.82;100.00
4346;BME280;2186;49.866;7.986;2022-11-02T00:16:10;100716.38;;;7.90;100.00
4346;BME280;2186;49.866;7.986;2022-11-02T00:18:39;100715.63;;;7.78;100.00
4346;BME280;2186;49.866;7.986;2022-11-02T00:21:07;100708.66;;;7.70;100.00
4346;BME280;2186;49.866;7.986;2022-11-02T00:23:34;100709.41;;;7.80;100.00
4346;BME280;2186;49.866;7.986;2022-11-02T00:26:00;100707.94;;;7.55;100.00
4346;BME280;2186;49.866;7.986;2022-11-02T00:28:29;100707.13;;;7.45;100.00
4346;BME280;2186;49.866;7.986;2022-11-02T00:30:55;100708.00;;;7.47;100.00
4346;BME280;2186;49.866;7.986;2022-11-02T00:33:22;100709.72;;;7.50;100.00
4346;BME280;2186;49.866;7.986;2022-11-02T00:35:48;100714.97;;;7.53;100.00
4346;BME280;2186;49.866;7.986;2022-11-02T00:38:15;100706.25;;;7.46;100.00
4346;BME280;2186;49.866;7.986;2022-11-02T00:40:41;100699.22;;;7.39;100.00
4346;BME280;2186;49.866;7.986;2022-11-02T00:43:07;100707.31;;;7.27;100.00
4346;BME280;2186;49.866;7.986;2022-11-02T00:45:34;100708.06;;;7.41;100.00
4346;BME280;2186;49.866;7.986;2022-11-02T00:48:00;100705.44;;;7.35;100.00
4346;BME280;2186;49.866;7.986;2022-11-02T00:50:27;100706.41;;;7.26;100.00
4346;BME280;2186;49.866;7.986;2022-11-02T00:52:54;100708.03;;;7.42;100.00
4346;BME280;2186;49.866;7.986;2022-11-02T00:55:20;100707.19;;;7.40;100.00
4346;BME280;2186;49.866;7.986;2022-11-02T00:57:47;100706.44;;;7.23;100.00
4346;BME280;2186;49.866;7.986;2022-11-02T01:00:14;100705.53;;;7.24;100.00
4346;BME280;2186;49.866;7.986;2022-11-02T01:02:41;100700.22;;;7.29;100.00
4346;BME280;2186;49.866;7.986;2022-11-02T01:05:09;100708.06;;;7.41;100.00
4346;BME280;2186;49.866;7.986;2022-11-02T01:07:36;100712.44;;;7.43;100.00
4346;BME280;2186;49.866;7.986;2022-11-02T01:10:04;100712.22;;;7.68;100.00
4346;BME280;2186;49.866;7.986;2022-11-02T01:12:31;100713.09;;;7.68;100.00
4346;BME280;2186;49.866;7.986;2022-11-02T01:14:57;100717.66;;;7.50;100.00
4346;BME280;2186;49.866;7.986;2022-11-02T01:17:23;100719.44;;;7.49;100.00
4346;BME280;2186;49.866;7.986;2022-11-02T01:19:50;100730.97;;;7.40;100.00
4346;BME280;2186;49.866;7.986;2022-11-02T01:22:16;100715.97;;;7.42;100.00
4346;BME280;2186;49.866;7.986;2022-11-02T01:24:43;100717.72;;;7.43;100.00
4346;BME280;2186;49.866;7.986;2022-11-02T01:27:09;100725.78;;;7.30;100.00
4346;BME280;2186;49.866;7.986;2022-11-02T01:29:35;100719.75;;;7.09;100.00
4346;BME280;2186;49.866;7.986;2022-11-02T01:32:02;100709.28;;;7.00;100.00
4346;BME280;2186;49.866;7.986;2022-11-02T01:34:28;100706.50;;;7.17;100.00
4346;BME280;2186;49.866;7.986;2022-11-02T01:36:55;100704.66;;;7.27;100.00
4346;BME280;2186;49.866;7.986;2022-11-02T01:39:21;100702.13;;;7.15;100.00
4346;BME280;2186;49.866;7.986;2022-11-02T01:41:51;100702.75;;;7.42;100.00
4346;BME280;2186;49.866;7.986;2022-11-02T01:44:30;100695.06;;;7.10;100.00
4346;BME280;2186;49.866;7.986;2022-11-02T01:47:02;100696.63;;;7.36;100.00
4346;BME280;2186;49.866;7.986;2022-11-02T01:49:32;100689.78;;;7.12;100.00
4346;BME280;2186;49.866;7.986;2022-11-02T01:52:07;100692.41;;;7.17;100.00
4346;BME280;2186;49.866;7.986;2022-11-02T01:55:00;100689.78;;;7.15;100.00
4346;BME280;2186;49.866;7.986;2022-11-02T01:57:24;100693.94;;;7.43;100.00
4346;BME280;2186;49.866;7.986;2022-11-02T02:00:08;100691.41;;;7.28;100.00
4346;BME280;2186;49.866;7.986;2022-11-02T02:02:45;100688.91;;;7.15;100.00
4346;BME280;2186;49.866;7.986;2022-11-02T02:05:15;100685.28;;;7.22;100.00
4346;BME280;2186;49.866;7.986;2022-11-02T02:07:43;100690.66;;;7.11;100.00
4346;BME280;2186;49.866;7.986;2022-11-02T02:10:10;100683.63;;;7.08;100.00
4346;BME280;2186;49.866;7.986;2022-11-02T02:12:38;100688.03;;;7.09;100.00
4346;BME280;2186;49.866;7.986;2022-11-02T02:15:07;100680.09;;;7.14;100.00
4346;BME280;2186;49.866;7.986;2022-11-02T02:17:49;100680.06;;;7.12;100.00
4346;BME280;2186;49.866;7.986;2022-11-02T02:26:30;100667.38;;;7.51;100.00
4346;BME280;2186;49.866;7.986;2022-11-02T02:29:20;100671.97;;;7.34;100.00
4346;BME280;2186;49.866;7.986;2022-11-02T02:31:57;100670.97;;;7.47;100.00
4346;BME280;2186;49.866;7.986;2022-11-02T02:37:08;100669.16;;;7.51;100.00
4346;BME280;2186;49.866;7.986;2022-11-02T02:39:56;100676.19;;;7.55;100.00
4346;BME280;2186;49.866;7.986;2022-11-02T02:42:32;100674.09;;;7.84;100.00
4346;BME280;2186;49.866;7.986;2022-11-02T02:47:46;100673.19;;;7.87;100.00
4346;BME280;2186;49.866;7.986;2022-11-02T02:50:22;100681.16;;;7.84;100.00
4346;BME280;2186;49.866;7.986;2022-11-02T02:52:51;100687.53;;;8.43;100.00
4346;BME280;2186;49.866;7.986;2022-11-02T02:55:25;100683.38;;;8.19;100.00
4346;BME280;2186;49.866;7.986;2022-11-02T02:57:53;100679.81;;;8.23;100.00
4346;BME280;2186;49.866;7.986;2022-11-02T03:00:21;100687.53;;;8.43;100.00
4346;BME280;2186;49.866;7.986;2022-11-02T03:02:48;100679.72;;;8.29;100.00
4346;BME280;2186;49.866;7.986;2022-11-02T03:05:32;100675.56;;;8.11;100.00
4346;BME280;2186;49.866;7.986;2022-11-02T03:08:04;100672.09;;;8.03;100.00
4346;BME280;2186;49.866;7.986;2022-11-02T03:16:41;100661.38;;;8.15;100.00
4346;BME280;2186;49.866;7.986;2022-11-02T03:19:34;100674.38;;;8.37;100.00
4346;BME280;2186;49.866;7.986;2022-11-02T03:22:29;100668.34;;;8.24;100.00
4346;BME280;2186;49.866;7.986;2022-11-02T03:25:24;100673.50;;;8.35;100.00
4346;BME280;2186;49.866;7.986;2022-11-02T03:28:00;100688.50;;;8.37;100.00
4346;BME280;2186;49.866;7.986;2022-11-02T03:30:34;100684.78;;;8.49;100.00
4346;BME280;2186;49.866;7.986;2022-11-02T03:38:50;100688.66;;;8.86;100.00
4346;BME280;2186;49.866;7.986;2022-11-02T03:41:21;100695.94;;;8.72;100.00
4346;BME280;2186;49.866;7.986;2022-11-02T03:43:52;100692.31;;;8.79;100.00
4346;BME280;2186;49.866;7.986;2022-11-02T03:46:20;100692.44;;;8.70;100.00
4346;BME280;2186;49.866;7.986;2022-11-02T03:48:49;100692.34;;;8.76;100.00
4346;BME280;2186;49.866;7.986;2022-11-02T03:51:19;100700.50;;;8.61;100.00
4346;BME280;2186;49.866;7.986;2022-11-02T03:54:04;100698.59;;;8.72;100.00
4346;BME280;2186;49.866;7.986;2022-11-02T03:56:45;100709.19;;;8.72;100.00
4346;BME280;2186;49.866;7.986;2022-11-02T03:59:13;100714.38;;;8.81;100.00
4346;BME280;2186;49.866;7.986;2022-11-02T04:01:47;100712.59;;;8.82;100.00
4346;BME280;2186;49.866;7.986;2022-11-02T04:04:14;100715.94;;;8.95;100.00
4346;BME280;2186;49.866;7.986;2022-11-02T04:06:43;100716.81;;;8.95;100.00
4346;BME280;2186;49.866;7.986;2022-11-02T04:09:10;100718.84;;;8.78;100.00
4346;BME280;2186;49.866;7.986;2022-11-02T04:11:37;100734.66;;;8.84;100.00
4346;BME280;2186;49.866;7.986;2022-11-02T04:14:22;100731.28;;;8.71;100.00
4346;BME280;2186;49.866;7.986;2022-11-02T04:17:04;100731.97;;;8.85;100.00
4346;BME280;2186;49.866;7.986;2022-11-02T04:19:50;100723.94;;;8.90;100.00
4346;BME280;2186;49.866;7.986;2022-11-02T04:22:17;100717.25;;;8.65;100.00
4346;BME280;2186;49.866;7.986;2022-11-02T04:25:03;100717.75;;;8.89;100.00
4346;BME280;2186;49.866;7.986;2022-11-02T04:27:46;100721.44;;;8.81;100.00
4346;BME280;2186;49.866;7.986;2022-11-02T04:30:15;100728.44;;;8.85;100.00
4346;BME280;2186;49.866;7.986;2022-11-02T04:32:43;100728.78;;;8.64;100.00
4346;BME280;2186;49.866;7.986;2022-11-02T04:35:30;100727.78;;;8.71;100.00
4346;BME280;2186;49.866;7.986;2022-11-02T04:37:57;100735.03;;;8.56;100.00
4346;BME280;2186;49.866;7.986;2022-11-02T04:40:43;100731.59;;;8.48;100.00
4346;BME280;2186;49.866;7.986;2022-11-02T04:43:09;100738.78;;;8.40;100.00
4346;BME280;2186;49.866;7.986;2022-11-02T04:45:36;100741.56;;;8.26;100.00
4346;BME280;2186;49.866;7.986;2022-11-02T04:48:05;100746.88;;;8.22;100.00
4346;BME280;2186;49.866;7.986;2022-11-02T04:50:32;100748.66;;;8.23;100.00
4346;BME280;2186;49.866;7.986;2022-11-02T04:53:01;100751.97;;;8.43;100.00
4346;BME280;2186;49.866;7.986;2022-11-02T04:55:28;100754.22;;;8.74;100.00
4346;BME280;2186;49.866;7.986;2022-11-02T04:57:54;100746.44;;;8.61;100.00
4346;BME280;2186;49.866;7.986;2022-11-02T05:00:21;100740.50;;;8.43;100.00
4346;BME280;2186;49.866;7.986;2022-11-02T05:02:49;100752.78;;;8.48;100.00
4346;BME280;2186;49.866;7.986;2022-11-02T05:05:16;100750.97;;;8.53;100.00
4346;BME280;2186;49.866;7.986;2022-11-02T05:07:43;100747.50;;;8.50;100.00
4346;BME280;2186;49.866;7.986;2022-11-02T05:10:10;100754.53;;;8.51;100.00
4346;BME280;2186;49.866;7.986;2022-11-02T05:12:36;100752.84;;;8.44;100.00
4346;BME280;2186;49.866;7.986;2022-11-02T05:15:03;100760.88;;;8.38;100.00
4346;BME280;2186;49.866;7.986;2022-11-02T05:17:30;100760.16;;;8.20;100.00
4346;BME280;2186;49.866;7.986;2022-11-02T05:19:56;100761.97;;;8.17;100.00
4346;BME280;2186;49.866;7.986;2022-11-02T05:22:23;100769.75;;;8.30;100.00
4346;BME280;2186;49.866;7.986;2022-11-02T05:24:49;100774.13;;;8.33;100.00
4346;BME280;2186;49.866;7.986;2022-11-02T05:27:15;100779.84;;;8.73;100.00
4346;BME280;2186;49.866;7.986;2022-11-02T05:29:42;100782.53;;;8.72;100.00
4346;BME280;2186;49.866;7.986;2022-11-02T05:32:08;100782.88;;;8.44;100.00
4346;BME280;2186;49.866;7.986;2022-11-02T05:34:34;100779.41;;;8.39;100.00
4346;BME280;2186;49.866;7.986;2022-11-02T05:37:01;100789.72;;;8.60;100.00
4346;BME280;2186;49.866;7.986;2022-11-02T05:39:27;100784.53;;;8.54;100.00
4346;BME280;2186;49.866;7.986;2022-11-02T05:41:53;100787.19;;;8.53;100.00
4346;BME280;2186;49.866;7.986;2022-11-02T05:44:20;100793.25;;;8.61;100.00
4346;BME280;2186;49.866;7.986;2022-11-02T05:46:46;100797.75;;;8.54;100.00
4346;BME280;2186;49.866;7.986;2022-11-02T05:49:13;100800.28;;;8.67;100.00
4346;BME280;2186;49.866;7.986;2022-11-02T05:51:39;100804.63;;;8.71;100.00
4346;BME280;2186;49.866;7.986;2022-11-02T05:54:05;100807.28;;;8.69;100.00
4346;BME280;2186;49.866;7.986;2022-11-02T05:56:32;100815.38;;;8.58;100.00
4346;BME280;2186;49.866;7.986;2022-11-02T05:58:58;100813.38;;;8.77;100.00
4346;BME280;2186;49.866;7.986;2022-11-02T06:01:25;100812.47;;;8.77;100.00
4346;BME280;2186;49.866;7.986;2022-11-02T06:03:51;100803.66;;;8.79;100.00
4346;BME280;2186;49.866;7.986;2022-11-02T06:06:20;100814.06;;;8.90;100.00
4346;BME280;2186;49.866;7.986;2022-11-02T06:08:46;100807.91;;;8.89;100.00
4346;BME280;2186;49.866;7.986;2022-11-02T06:11:13;100818.38;;;9.00;100.00
4346;BME280;2186;49.866;7.986;2022-11-02T06:13:40;100808.78;;;8.90;100.00
4346;BME280;2186;49.866;7.986;2022-11-02T06:16:09;100819.50;;;8.82;100.00
4346;BME280;2186;49.866;7.986;2022-11-02T06:18:36;100818.50;;;8.91;100.00
4346;BME280;2186;49.866;7.986;2022-11-02T06:21:03;100814.06;;;8.90;100.00
4346;BME280;2186;49.866;7.986;2022-11-02T06:23:30;100821.03;;;8.99;100.00
4346;BME280;2186;49.866;7.986;2022-11-02T06:25:58;100828.97;;;9.00;100.00
4346;BME280;2186;49.866;7.986;2022-11-02T06:28:25;100832.50;;;9.01;100.00
4346;BME280;2186;49.866;7.986;2022-11-02T06:30:52;100828.19;;;8.94;100.00
4346;BME280;2186;49.866;7.986;2022-11-02T06:33:19;100833.56;;;8.87;100.00
4346;BME280;2186;49.866;7.986;2022-11-02T06:35:46;100837.16;;;8.83;100.00
4346;BME280;2186;49.866;7.986;2022-11-02T06:38:13;100847.75;;;8.83;100.00
4346;BME280;2186;49.866;7.986;2022-11-02T06:40:40;100849.53;;;8.83;100.00
4346;BME280;2186;49.866;7.986;2022-11-02T06:43:07;100852.25;;;8.75;100.00
4346;BME280;2186;49.866;7.986;2022-11-02T06:45:42;100857.38;;;8.90;100.00
4346;BME280;2186;49.866;7.986;2022-11-02T06:48:09;100860.97;;;8.86;100.00
4346;BME280;2186;49.866;7.986;2022-11-02T06:50:35;100859.94;;;8.98;100.00
4346;BME280;2186;49.866;7.986;2022-11-02T06:53:02;100857.38;;;8.90;100.00
4346;BME280;2186;49.866;7.986;2022-11-02T06:55:29;100866.22;;;8.93;100.00
4346;BME280;2186;49.866;7.986;2022-11-02T06:57:55;100870.56;;;8.97;100.00
4346;BME280;2186;49.866;7.986;2022-11-02T07:00:21;100866.09;;;9.00;100.00
4346;BME280;2186;49.866;7.986;2022-11-02T07:02:59;100872.19;;;9.08;100.00
4346;BME280;2186;49.866;7.986;2022-11-02T07:05:26;100879.13;;;9.18;100.00
4346;BME280;2186;49.866;7.986;2022-11-02T07:07:53;100882.47;;;9.33;100.00
4346;BME280;2186;49.866;7.986;2022-11-02T07:10:19;100890.19;;;9.49;100.00
4346;BME280;2186;49.866;7.986;2022-11-02T07:12:45;100894.38;;;9.64;100.00
4346;BME280;2186;49.866;7.986;2022-11-02T07:15:12;100895.88;;;9.82;100.00
4346;BME280;2186;49.866;7.986;2022-11-02T07:17:39;100906.38;;;9.90;100.00
4346;BME280;2186;49.866;7.986;2022-11-02T07:20:06;100904.47;;;9.98;100.00
4346;BME280;2186;49.866;7.986;2022-11-02T07:22:36;100910.09;;;10.33;100.00
4346;BME280;2186;49.866;7.986;2022-11-02T07:25:03;100914.41;;;10.41;100.00
4346;BME280;2186;49.866;7.986;2022-11-02T07:27:29;100919.47;;;10.56;100.00
4346;BME280;2186;49.866;7.986;2022-11-02T07:29:56;100916.50;;;10.71;100.00
4346;BME280;2186;49.866;7.986;2022-11-02T07:32:23;100909.97;;;10.87;100.00
4346;BME280;2186;49.866;7.986;2022-11-02T07:34:50;100924.00;;;10.97;100.00
4346;BME280;2186;49.866;7.986;2022-11-02T07:37:17;100921.88;;;11.13;100.00
4346;BME280;2186;49.866;7.986;2022-11-02T07:39:43;100925.28;;;11.19;100.00
4346;BME280;2186;49.866;7.986;2022-11-02T07:42:10;100936.44;;;11.37;100.00
4346;BME280;2186;49.866;7.986;2022-11-02T07:44:36;100931.84;;;11.45;100.00
4346;BME280;2186;49.866;7.986;2022-11-02T07:47:02;100931.75;;;11.48;100.00
4346;BME280;2186;49.866;7.986;2022-11-02T07:49:29;100936.03;;;11.56;100.00
4346;BME280;2186;49.866;7.986;2022-11-02T07:51:55;100946.97;;;11.84;100.00
4346;BME280;2186;49.866;7.986;2022-11-02T07:54:22;100947.63;;;11.94;100.00
4346;BME280;2186;49.866;7.986;2022-11-02T07:56:48;100947.59;;;11.96;100.00
4346;BME280;2186;49.866;7.986;2022-11-02T07:59:14;100951.75;;;12.07;100.00
4346;BME280;2186;49.866;7.986;2022-11-02T08:01:41;100947.00;;;12.19;100.00
4346;BME280;2186;49.866;7.986;2022-11-02T08:04:07;100954.72;;;12.31;100.00
4346;BME280;2186;49.866;7.986;2022-11-02T08:06:34;100952.66;;;12.42;100.00
4346;BME280;2186;49.866;7.986;2022-11-02T08:09:01;100952.75;;;12.71;100.00
4346;BME280;2186;49.866;7.986;2022-11-02T08:11:28;100957.28;;;12.69;100.00
4346;BME280;2186;49.866;7.986;2022-11-02T08:13:54;100968.22;;;12.93;100.00
4346;BME280;2186;49.866;7.986;2022-11-02T08:16:21;100966.47;;;12.92;100.00
4346;BME280;2186;49.866;7.986;2022-11-02T08:18:47;100969.00;;;12.96;100.00
4346;BME280;2186;49.866;7.986;2022-11-02T08:21:14;100957.84;;;13.13;100.00
4346;BME280;2186;49.866;7.986;2022-11-02T08:23:40;100950.13;;;13.04;100.00
4346;BME280;2186;49.866;7.986;2022-11-02T08:26:07;100966.09;;;13.37;100.00
4346;BME280;2186;49.866;7.986;2022-11-02T08:28:33;100972.16;;;13.43;100.00
4346;BME280;2186;49.866;7.986;2022-11-02T08:31:06;100967.75;;;13.41;100.00
4346;BME280;2186;49.866;7.986;2022-11-02T08:33:32;100969.19;;;13.52;100.00
4346;BME280;2186;49.866;7.986;2022-11-02T08:36:03;100963.34;;;13.40;100.00
4346;BME280;2186;49.866;7.986;2022-11-02T08:38:30;100964.59;;;13.57;100.00
4346;BME280;2186;49.866;7.986;2022-11-02T08:40:57;100963.28;;;13.41;100.00
4346;BME280;2186;49.866;7.986;2022-11-02T08:43:23;100968.69;;;13.69;100.00
4346;BME280;2186;49.866;7.986;2022-11-02T08:45:50;100972.31;;;13.67;100.00
4346;BME280;2186;49.866;7.986;2022-11-02T08:48:36;100965.19;;;13.67;99.48
4346;BME280;2186;49.866;7.986;2022-11-02T08:51:03;100963.50;;;13.92;98.80
4346;BME280;2186;49.866;7.986;2022-11-02T08:53:30;100974.91;;;13.98;98.38
4346;BME280;2186;49.866;7.986;2022-11-02T08:55:57;100967.31;;;14.13;97.50
4346;BME280;2186;49.866;7.986;2022-11-02T08:58:24;100976.28;;;14.11;96.27
4346;BME280;2186;49.866;7.986;2022-11-02T09:00:54;100968.38;;;14.34;95.99
4346;BME280;2186;49.866;7.986;2022-11-02T09:03:20;100983.63;;;14.32;95.40
4346;BME280;2186;49.866;7.986;2022-11-02T09:05:57;100977.59;;;14.54;93.94
4346;BME280;2186;49.866;7.986;2022-11-02T09:08:24;100968.16;;;14.42;94.10
4346;BME280;2186;49.866;7.986;2022-11-02T09:10:52;100976.81;;;14.50;94.09
4346;BME280;2186;49.866;7.986;2022-11-02T09:13:19;100974.47;;;14.66;93.67
4346;BME280;2186;49.866;7.986;2022-11-02T09:15:52;100973.53;;;14.68;92.85
4346;BME280;2186;49.866;7.986;2022-11-02T09:18:19;100977.06;;;14.94;92.91
4346;BME280;2186;49.866;7.986;2022-11-02T09:20:46;100975.94;;;15.01;92.38
4346;BME280;2186;49.866;7.986;2022-11-02T09:23:17;100971.06;;;15.12;92.83
4346;BME280;2186;49.866;7.986;2022-11-02T09:25:44;100969.97;;;15.18;92.01
4346;BME280;2186;49.866;7.986;2022-11-02T09:28:10;100957.09;;;15.27;91.44
4346;BME280;2186;49.866;7.986;2022-11-02T09:30:38;100959.47;;;15.35;90.24
4346;BME280;2186;49.866;7.986;2022-11-02T09:33:05;100965.78;;;15.34;89.59
4346;BME280;2186;49.866;7.986;2022-11-02T09:35:34;100972.94;;;15.33;90.42
4346;BME280;2186;49.866;7.986;2022-11-02T09:38:02;100972.88;;;15.35;89.66
4346;BME280;2186;49.866;7.986;2022-11-02T09:40:40;100978.09;;;15.39;89.05
4346;BME280;2186;49.866;7.986;2022-11-02T09:43:11;100980.34;;;15.27;88.83
4346;BME280;2186;49.866;7.986;2022-11-02T09:46:02;100978.38;;;15.55;88.78
4346;BME280;2186;49.866;7.986;2022-11-02T09:48:46;100977.28;;;15.61;88.11
4346;BME280;2186;49.866;7.986;2022-11-02T09:51:16;100976.94;;;15.70;88.42
4346;BME280;2186;49.866;7.986;2022-11-02T09:54:07;100986.19;;;15.63;86.81
4346;BME280;2186;49.866;7.986;2022-11-02T09:56:42;100981.19;;;15.76;85.41
4346;BME280;2186;49.866;7.986;2022-11-02T09:59:23;100979.91;;;15.86;85.07
4346;BME280;2186;49.866;7.986;2022-11-02T10:01:56;100985.97;;;16.13;84.43
4346;BME280;2186;49.866;7.986;2022-11-02T10:04:48;100989.16;;;16.22;83.20
4346;BME280;2186;49.866;7.986;2022-11-02T10:10:35;100997.19;;;16.00;82.03
4346;BME280;2186;49.866;7.986;2022-11-02T10:15:45;100994.66;;;15.74;82.00
4346;BME280;2186;49.866;7.986;2022-11-02T10:18:24;101004.16;;;15.83;80.82
4346;BME280;2186;49.866;7.986;2022-11-02T10:20:53;101011.25;;;15.84;81.74
4346;BME280;2186;49.866;7.986;2022-11-02T10:23:41;100996.91;;;15.63;81.01
4346;BME280;2186;49.866;7.986;2022-11-02T10:26:18;101005.78;;;15.87;79.38
4346;BME280;2186;49.866;7.986;2022-11-02T10:28:50;101013.41;;;15.97;78.78
4346;BME280;2186;49.866;7.986;2022-11-02T10:31:29;101006.66;;;15.87;76.87
4346;BME280;2186;49.866;7.986;2022-11-02T10:33:59;101005.44;;;15.73;78.68
4346;BME280;2186;49.866;7.986;2022-11-02T10:36:47;101012.44;;;15.77;77.67
4346;BME280;2186;49.866;7.986;2022-11-02T10:39:37;101003.56;;;15.75;76.13
4346;BME280;2186;49.866;7.986;2022-11-02T10:45:44;101006.03;;;16.03;74.08
4346;BME280;2186;49.866;7.986;2022-11-02T10:51:13;101009.84;;;15.97;73.24
4346;BME280;2186;49.866;7.986;2022-11-02T10:53:45;100999.00;;;16.00;73.09
4346;BME280;2186;49.866;7.986;2022-11-02T10:56:28;101011.31;;;15.82;73.65
4346;BME280;2186;49.866;7.986;2022-11-02T11:01:29;101004.63;;;16.16;73.43
4346;BME280;2186;49.866;7.986;2022-11-02T11:04:04;101002.16;;;16.33;71.38
4346;BME280;2186;49.866;7.986;2022-11-02T11:06:38;100989.31;;;16.19;72.46
4346;BME280;2186;49.866;7.986;2022-11-02T11:09:14;100988.59;;;16.36;72.87
4346;BME280;2186;49.866;7.986;2022-11-02T11:11:55;100988.97;;;16.27;72.01
4346;BME280;2186;49.866;7.986;2022-11-02T11:14:25;100986.78;;;16.37;71.35
4346;BME280;2186;49.866;7.986;2022-11-02T11:17:19;100977.38;;;16.48;71.84
4346;BME280;2186;49.866;7.986;2022-11-02T11:20:26;100986.34;;;16.47;71.25
4346;BME280;2186;49.866;7.986;2022-11-02T11:23:18;100993.91;;;16.38;71.71
4346;BME280;2186;49.866;7.986;2022-11-02T11:26:05;100979.44;;;16.20;72.12
4346;BME280;2186;49.866;7.986;2022-11-02T11:28:39;100987.88;;;16.33;72.73
4346;BME280;2186;49.866;7.986;2022-11-02T11:31:17;100983.09;;;16.39;72.39
4346;BME280;2186;49.866;7.986;2022-11-02T11:33:57;100987.22;;;16.48;71.59
4346;BME280;2186;49.866;7.986;2022-11-02T11:36:33;100983.34;;;16.55;71.59
4346;BME280;2186;49.866;7.986;2022-11-02T11:39:06;100980.91;;;16.71;71.70
4346;BME280;2186;49.866;7.986;2022-11-02T11:41:44;100976.34;;;16.51;72.89
4346;BME280;2186;49.866;7.986;2022-11-02T11:44:13;100968.09;;;16.77;71.22
4346;BME280;2186;49.866;7.986;2022-11-02T11:46:49;100969.75;;;16.59;70.00
4346;BME280;2186;49.866;7.986;2022-11-02T11:49:26;100962.97;;;16.71;69.82
4346;BME280;2186;49.866;7.986;2022-11-02T11:52:18;100973.84;;;16.68;70.37
4346;BME280;2186;49.866;7.986;2022-11-02T11:54:56;100963.47;;;16.81;67.37
4346;BME280;2186;49.866;7.986;2022-11-02T11:57:31;100967.81;;;16.83;67.02
4346;BME280;2186;49.866;7.986;2022-11-02T12:00:00;100963.69;;;16.76;68.07
4346;BME280;2186;49.866;7.986;2022-11-02T12:02:32;100970.25;;;16.90;67.67
4346;BME280;2186;49.866;7.986;2022-11-02T12:05:13;100975.81;;;16.85;66.92
4346;BME280;2186;49.866;7.986;2022-11-02T12:07:53;100973.47;;;16.98;66.87
4346;BME280;2186;49.866;7.986;2022-11-02T12:13:41;100965.06;;;17.05;67.35
4346;BME280;2186;49.866;7.986;2022-11-02T12:19:08;100972.94;;;16.90;67.64
4346;BME280;2186;49.866;7.986;2022-11-02T12:29:43;100950.03;;;17.01;66.01
4346;BME280;2186;49.866;7.986;2022-11-02T12:35:34;100959.44;;;16.91;65.74
4346;BME280;2186;49.866;7.986;2022-11-02T12:38:34;100958.19;;;17.00;64.92
4346;BME280;2186;49.866;7.986;2022-11-02T12:41:07;100949.91;;;17.04;64.89
4346;BME280;2186;49.866;7.986;2022-11-02T12:43:37;100950.47;;;17.11;64.39
4346;BME280;2186;49.866;7.986;2022-11-02T12:54:20;100944.16;;;17.12;67.97
4346;BME280;2186;49.866;7.986;2022-11-02T12:56:51;100946.50;;;17.01;67.85
4346;BME280;2186;49.866;7.986;2022-11-02T12:59:27;100935.81;;;16.79;68.44
4346;BME280;2186;49.866;7.986;2022-11-02T13:02:10;100942.72;;;16.84;69.16
4346;BME280;2186;49.866;7.986;2022-11-02T13:04:47;100949.03;;;17.04;68.56
4346;BME280;2186;49.866;7.986;2022-11-02T13:07:21;100934.81;;;17.02;68.59
4346;BME280;2186;49.866;7.986;2022-11-02T13:10:05;100938.28;;;16.83;69.60
4346;BME280;2186;49.866;7.986;2022-11-02T13:12:41;100928.81;;;16.95;67.81
4346;BME280;2186;49.866;7.986;2022-11-02T13:15:18;100931.38;;;16.78;68.53
4346;BME280;2186;49.866;7.986;2022-11-02T13:17:53;100917.50;;;16.88;67.87
4346;BME280;2186;49.866;7.986;2022-11-02T13:20:34;100916.47;;;16.91;66.63
4346;BME280;2186;49.866;7.986;2022-11-02T13:23:05;100928.88;;;16.94;65.89
4346;BME280;2186;49.866;7.986;2022-11-02T13:25:36;100923.50;;;17.14;65.51
4346;BME280;2186;49.866;7.986;2022-11-02T13:28:10;100929.44;;;17.02;65.45
4346;BME280;2186;49.866;7.986;2022-11-02T13:30:39;100937.97;;;17.30;65.51
4346;BME280;2186;49.866;7.986;2022-11-02T13:33:17;100925.50;;;17.29;67.45
4346;BME280;2186;49.866;7.986;2022-11-02T13:35:45;100918.47;;;17.06;68.47
4346;BME280;2186;49.866;7.986;2022-11-02T13:43:55;100901.69;;;17.01;66.14
4346;BME280;2186;49.866;7.986;2022-11-02T13:46:45;100909.69;;;16.82;64.88
4346;BME280;2186;49.866;7.986;2022-11-02T13:52:02;100906.91;;;17.04;64.74
4346;BME280;2186;49.866;7.986;2022-11-02T13:54:37;100915.78;;;17.06;65.51
4346;BME280;2186;49.866;7.986;2022-11-02T13:57:32;100913.44;;;16.99;65.58
4346;BME280;2186;49.866;7.986;2022-11-02T14:00:02;100906.81;;;16.87;66.56
4346;BME280;2186;49.866;7.986;2022-11-02T14:02:35;100914.03;;;17.05;65.00
4346;BME280;2186;49.866;7.986;2022-11-02T14:05:07;100916.53;;;16.69;66.58
4346;BME280;2186;49.866;7.986;2022-11-02T14:07:37;100910.06;;;16.53;66.86
4346;BME280;2186;49.866;7.986;2022-11-02T14:10:23;100919.94;;;16.52;66.83
4346;BME280;2186;49.866;7.986;2022-11-02T14:12:52;100915.16;;;16.39;68.48
4346;BME280;2186;49.866;7.986;2022-11-02T14:25:50;100911.53;;;16.40;70.76
4346;BME280;2186;49.866;7.986;2022-11-02T14:30:48;100911.38;;;16.43;71.59
4346;BME280;2186;49.866;7.986;2022-11-02T14:36:08;100905.34;;;16.38;71.89
4346;BME280;2186;49.866;7.986;2022-11-02T14:38:58;100903.41;;;16.41;70.43
4346;BME280;2186;49.866;7.986;2022-11-02T14:42:02;100894.34;;;16.44;71.14
4346;BME280;2186;49.866;7.986;2022-11-02T14:47:36;100903.31;;;16.22;71.03
4346;BME280;2186;49.866;7.986;2022-11-02T14:52:35;100900.25;;;16.32;69.29
4346;BME280;2186;49.866;7.986;2022-11-02T14:55:18;100898.91;;;16.21;69.50
4346;BME280;2186;49.866;7.986;2022-11-02T14:58:12;100898.09;;;16.19;69.26
4346;BME280;2186;49.866;7.986;2022-11-02T15:03:28;100894.75;;;15.92;71.41
4346;BME280;2186;49.866;7.986;2022-11-02T15:11:43;100897.91;;;15.80;69.55
4346;BME280;2186;49.866;7.986;2022-11-02T15:17:48;100889.63;;;15.64;71.30
4346;BME280;2186;49.866;7.986;2022-11-02T15:25:19;100895.97;;;15.62;74.33